createdAt,value
2023-11-15T00:00:12.419Z,12.75
2023-11-15T00:03:14.658Z,16.08
2023-11-15T00:06:17.519Z,10.07
2023-11-15T00:09:19.743Z,11.88
2023-11-15T00:12:21.898Z,14.57
2023-11-15T00:15:24.132Z,16.40
2023-11-15T00:18:26.642Z,41.53
2023-11-15T00:21:30.402Z,16.35
2023-11-15T00:24:32.476Z,15.77
2023-11-15T00:27:34.723Z,15.82
2023-11-15T00:30:36.778Z,15.48
2023-11-15T00:33:38.976Z,21.27
2023-11-15T00:36:44.763Z,16.98
2023-11-15T00:39:47.216Z,15.63
2023-11-15T00:42:50.761Z,16.33
2023-11-15T00:45:52.844Z,16.60
2023-11-15T00:48:54.955Z,15.27
2023-11-15T00:51:57.946Z,20.35
2023-11-15T00:55:00.301Z,15.40
2023-11-15T00:58:04.874Z,15.63
2023-11-15T01:01:12.616Z,16.08
2023-11-15T01:04:14.874Z,15.53
2023-11-15T01:07:17.100Z,17.27
2023-11-15T01:10:20.163Z,20.15
2023-11-15T01:13:22.844Z,18.50
2023-11-15T01:16:25.365Z,21.70
2023-11-15T01:19:27.519Z,16.95
2023-11-15T01:22:29.638Z,16.85
2023-11-15T01:25:32.270Z,20.67
2023-11-15T01:28:35.166Z,18.02
2023-11-15T01:31:37.232Z,17.50
2023-11-15T01:34:39.292Z,19.85
2023-11-15T01:37:41.326Z,19.83
2023-11-15T01:40:43.460Z,17.38
2023-11-15T01:43:45.676Z,15.18
2023-11-15T01:46:51.862Z,14.63
2023-11-15T01:49:54.826Z,11.38
2023-11-15T01:52:57.647Z,15.90
2023-11-15T01:55:59.719Z,13.70
2023-11-15T01:59:02.202Z,12.63
2023-11-15T02:02:04.836Z,14.75
2023-11-15T02:05:07.172Z,14.88
2023-11-15T02:08:10.425Z,13.98
2023-11-15T02:11:12.575Z,12.07
2023-11-15T02:14:14.743Z,13.40
2023-11-15T02:17:16.941Z,44.77
2023-11-15T02:20:19.397Z,19.17
2023-11-15T02:23:25.150Z,13.00
2023-11-15T02:26:27.386Z,14.03
2023-11-15T02:29:29.759Z,16.55
2023-11-15T02:32:32.005Z,12.73
2023-11-15T02:35:34.103Z,10.07
2023-11-15T02:38:36.211Z,10.00
2023-11-15T02:41:38.301Z,11.93
2023-11-15T02:44:40.461Z,17.90
2023-11-15T02:47:42.592Z,8.37
2023-11-15T02:50:45.039Z,15.70
2023-11-15T02:53:47.909Z,16.40
2023-11-15T02:56:50.091Z,14.70
2023-11-15T02:59:52.211Z,18.40
2023-11-15T03:02:54.366Z,16.77
2023-11-15T03:05:56.665Z,13.05
2023-11-15T03:08:58.889Z,12.77
2023-11-15T03:12:01.172Z,30.30
2023-11-15T03:15:04.643Z,23.20
2023-11-15T03:18:06.924Z,21.33
2023-11-15T03:21:09.075Z,14.35
2023-11-15T03:24:12.032Z,8.15
2023-11-15T03:27:14.214Z,8.23
2023-11-15T03:30:16.999Z,12.07
2023-11-15T03:33:19.340Z,8.13
2023-11-15T03:36:21.468Z,9.65
2023-11-15T03:39:23.875Z,7.77
2023-11-15T03:42:25.896Z,8.00
2023-11-15T03:45:27.969Z,7.25
2023-11-15T03:48:30.062Z,10.63
2023-11-15T03:51:32.158Z,7.30
2023-11-15T03:54:34.284Z,7.53
2023-11-15T03:57:36.381Z,10.20
2023-11-15T04:00:38.413Z,7.38
2023-11-15T04:03:40.655Z,8.57
2023-11-15T04:06:42.937Z,6.93
2023-11-15T04:09:45.067Z,8.80
2023-11-15T04:12:48.175Z,8.35
2023-11-15T04:15:50.546Z,11.07
2023-11-15T04:18:52.770Z,13.50
2023-11-15T04:22:05.418Z,7.88
2023-11-15T04:25:14.339Z,11.43
2023-11-15T04:28:16.412Z,7.50
2023-11-15T04:31:18.928Z,7.00
2023-11-15T04:34:21.041Z,9.90
2023-11-15T04:37:23.149Z,7.20
2023-11-15T04:40:25.249Z,9.47
2023-11-15T04:43:27.400Z,11.13
2023-11-15T04:46:30.171Z,7.20
2023-11-15T04:49:32.945Z,6.07
2023-11-15T04:52:34.983Z,9.70
2023-11-15T04:55:37.281Z,9.05
2023-11-15T04:58:41.165Z,8.35
2023-11-15T05:01:47.008Z,8.30
2023-11-15T05:04:52.024Z,7.32
2023-11-15T05:07:55.041Z,6.75
2023-11-15T05:10:57.109Z,8.43
2023-11-15T05:13:59.158Z,7.50
2023-11-15T05:17:01.296Z,7.70
2023-11-15T05:20:03.498Z,7.53
2023-11-15T05:23:05.579Z,10.90
2023-11-15T05:26:10.458Z,7.55
2023-11-15T05:29:12.472Z,9.65
2023-11-15T05:32:14.575Z,10.97
2023-11-15T05:35:16.631Z,12.32
2023-11-15T05:38:20.142Z,18.15
2023-11-15T05:41:24.652Z,12.57
2023-11-15T05:44:30.096Z,15.10
2023-11-15T05:47:32.429Z,12.60
2023-11-15T05:50:34.631Z,8.55
2023-11-15T05:53:36.950Z,8.13
2023-11-15T05:56:39.178Z,11.98
2023-11-15T05:59:41.473Z,7.88
2023-11-15T06:02:43.780Z,10.50
2023-11-15T06:05:46.066Z,12.05
2023-11-15T06:08:48.612Z,9.25
2023-11-15T06:11:50.693Z,11.27
2023-11-15T06:14:52.809Z,14.90
2023-11-15T06:17:55.900Z,20.42
2023-11-15T06:20:58.124Z,17.55
2023-11-15T06:24:00.523Z,15.50
2023-11-15T06:27:02.712Z,12.85
2023-11-15T06:30:06.050Z,10.88
2023-11-15T06:33:08.629Z,9.73
2023-11-15T06:36:11.659Z,10.52
2023-11-15T06:39:14.001Z,8.88
2023-11-15T06:42:17.267Z,12.95
2023-11-15T06:45:19.592Z,11.82
2023-11-15T06:48:24.105Z,9.77
2023-11-15T06:51:27.698Z,11.70
2023-11-15T06:54:30.109Z,8.53
2023-11-15T06:57:32.352Z,4.88
2023-11-15T07:00:35.771Z,7.40
2023-11-15T07:03:39.555Z,3.83
2023-11-15T07:06:49.789Z,3.63
2023-11-15T07:09:54.205Z,3.03
2023-11-15T07:12:59.211Z,2.60
2023-11-15T07:16:03.980Z,2.67
2023-11-15T07:19:06.633Z,4.77
2023-11-15T07:22:10.491Z,5.43
2023-11-15T07:25:14.281Z,6.32
2023-11-15T07:28:18.848Z,5.30
2023-11-15T07:31:21.726Z,3.63
2023-11-15T07:34:24.312Z,6.28
2023-11-15T07:37:26.576Z,4.13
2023-11-15T07:40:29.342Z,4.00
2023-11-15T07:43:31.455Z,3.47
2023-11-15T07:46:34.965Z,2.83
2023-11-15T07:49:38.274Z,3.53
2023-11-15T07:52:44.537Z,2.47
2023-11-15T07:55:47.812Z,3.17
2023-11-15T07:58:55.757Z,4.20
2023-11-15T08:01:58.000Z,2.83
2023-11-15T08:05:00.419Z,2.43
2023-11-15T08:08:03.226Z,2.80
2023-11-15T08:11:06.130Z,3.10
2023-11-15T08:14:08.293Z,2.63
2023-11-15T08:17:12.449Z,1.83
2023-11-15T08:20:18.229Z,4.70
2023-11-15T08:23:20.459Z,2.63
2023-11-15T08:26:22.685Z,3.50
2023-11-15T08:29:24.899Z,2.95
2023-11-15T08:32:30.526Z,2.90
2023-11-15T08:35:33.488Z,4.00
2023-11-15T08:38:36.082Z,2.93
2023-11-15T08:41:38.670Z,3.65
2023-11-15T08:44:44.666Z,3.50
2023-11-15T08:47:47.297Z,1.95
2023-11-15T08:50:49.912Z,3.03
2023-11-15T08:53:52.240Z,2.07
2023-11-15T08:56:54.715Z,1.58
2023-11-15T08:59:57.243Z,3.75
2023-11-15T09:03:00.911Z,3.03
2023-11-15T09:06:03.517Z,2.03
2023-11-15T09:09:09.849Z,2.73
2023-11-15T09:12:14.112Z,5.00
2023-11-15T09:15:16.738Z,2.85
2023-11-15T09:18:25.203Z,2.92
2023-11-15T09:21:27.470Z,2.40
2023-11-15T09:24:30.623Z,2.67
2023-11-15T09:27:33.925Z,4.50
2023-11-15T09:30:36.785Z,3.08
2023-11-15T09:33:39.810Z,4.07
2023-11-15T09:36:43.631Z,2.03
2023-11-15T09:39:47.747Z,3.83
2023-11-15T09:42:53.258Z,4.13
2023-11-15T09:45:59.574Z,1.98
2023-11-15T09:49:07.489Z,1.80
2023-11-15T09:52:16.491Z,3.00
2023-11-15T09:55:23.029Z,2.55
2023-11-15T09:58:25.191Z,2.40
2023-11-15T10:01:27.867Z,3.75
2023-11-15T10:04:30.451Z,1.03
2023-11-15T10:07:32.611Z,3.80
2023-11-15T10:10:34.777Z,3.85
2023-11-15T10:13:39.269Z,3.38
2023-11-15T10:16:49.546Z,2.58
2023-11-15T10:19:52.604Z,2.63
2023-11-15T10:22:54.996Z,1.83
2023-11-15T10:25:57.211Z,4.78
2023-11-15T10:29:08.583Z,4.20
2023-11-15T10:32:11.132Z,3.03
2023-11-15T10:35:29.724Z,4.85
2023-11-15T10:38:34.851Z,4.38
2023-11-15T10:41:39.875Z,1.75
2023-11-15T10:44:42.881Z,1.60
2023-11-15T10:47:50.652Z,1.20
2023-11-15T10:50:56.742Z,1.23
2023-11-15T10:53:59.576Z,2.70
2023-11-15T10:57:02.238Z,2.55
2023-11-15T11:00:09.050Z,2.27
2023-11-15T11:03:11.368Z,1.30
2023-11-15T11:06:18.279Z,1.48
2023-11-15T11:09:37.032Z,1.48
2023-11-15T11:12:39.341Z,2.28
2023-11-15T11:15:42.516Z,1.80
2023-11-15T11:18:45.527Z,3.15
2023-11-15T11:22:09.109Z,1.17
2023-11-15T11:25:12.145Z,1.60
2023-11-15T11:28:15.708Z,1.73
2023-11-15T11:31:21.216Z,1.70
2023-11-15T11:34:26.280Z,1.95
2023-11-15T11:37:55.331Z,2.28
2023-11-15T11:41:01.673Z,1.02
2023-11-15T11:44:06.150Z,0.97
2023-11-15T11:47:12.847Z,1.17
2023-11-15T11:50:18.808Z,2.75
2023-11-15T11:53:21.926Z,2.10
2023-11-15T11:56:24.824Z,1.57
2023-11-15T11:59:29.470Z,2.42
2023-11-15T12:02:38.256Z,2.53
2023-11-15T12:05:42.196Z,1.40
2023-11-15T12:08:49.251Z,1.00
2023-11-15T12:11:51.550Z,2.40
2023-11-15T12:14:59.790Z,2.15
2023-11-15T12:18:04.047Z,1.88
2023-11-15T12:21:07.428Z,2.97
2023-11-15T12:24:11.579Z,4.93
2023-11-15T12:27:14.986Z,2.47
2023-11-15T12:30:17.274Z,2.80
2023-11-15T12:33:19.584Z,3.33
2023-11-15T12:36:22.668Z,1.27
2023-11-15T12:39:24.967Z,1.95
2023-11-15T12:42:28.184Z,1.45
2023-11-15T12:45:31.261Z,3.38
2023-11-15T12:48:33.458Z,3.25
2023-11-15T12:51:44.297Z,1.63
2023-11-15T12:54:56.008Z,3.00
2023-11-15T12:57:58.295Z,2.42
2023-11-15T13:01:13.903Z,2.85
2023-11-15T13:04:17.071Z,3.13
2023-11-15T13:07:19.491Z,1.83
2023-11-15T13:10:21.585Z,2.42
2023-11-15T13:13:26.000Z,1.98
2023-11-15T13:16:29.101Z,3.65
2023-11-15T13:19:31.705Z,8.87
2023-11-15T13:22:33.984Z,4.57
2023-11-15T13:25:36.247Z,2.90
2023-11-15T13:28:40.691Z,3.08
2023-11-15T13:31:44.394Z,4.75
2023-11-15T13:34:48.191Z,2.13
2023-11-15T13:37:50.459Z,3.87
2023-11-15T13:40:52.985Z,2.15
2023-11-15T13:43:55.993Z,2.53
2023-11-15T13:46:58.238Z,2.53
2023-11-15T13:50:00.853Z,4.53
2023-11-15T13:53:03.102Z,4.50
2023-11-15T13:56:06.388Z,3.78
2023-11-15T13:59:08.666Z,1.33
2023-11-15T14:02:11.554Z,3.95
2023-11-15T14:05:16.870Z,1.87
2023-11-15T14:08:19.487Z,2.67
2023-11-15T14:11:21.808Z,2.30
2023-11-15T14:14:25.465Z,3.65
2023-11-15T14:17:31.931Z,2.92
2023-11-15T14:20:39.386Z,4.00
2023-11-15T14:23:41.868Z,9.90
2023-11-15T14:26:44.082Z,6.88
2023-11-15T14:29:46.634Z,4.55
2023-11-15T14:32:49.562Z,2.22
2023-11-15T14:35:51.652Z,3.03
2023-11-15T14:38:55.813Z,3.33
2023-11-15T14:42:00.548Z,9.43
2023-11-15T14:45:02.793Z,3.58
2023-11-15T14:48:05.274Z,5.27
2023-11-15T14:51:07.727Z,5.95
2023-11-15T14:54:11.581Z,9.13
2023-11-15T14:57:13.983Z,5.63
2023-11-15T15:00:21.686Z,6.93
2023-11-15T15:03:24.952Z,15.65
2023-11-15T15:06:27.367Z,12.68
2023-11-15T15:09:34.894Z,8.25
2023-11-15T15:12:37.652Z,4.37
2023-11-15T15:15:40.168Z,3.13
2023-11-15T15:18:42.654Z,4.43
2023-11-15T15:21:46.858Z,5.68
2023-11-15T15:24:50.264Z,5.53
2023-11-15T15:27:52.446Z,4.70
2023-11-15T15:30:55.162Z,8.18
2023-11-15T15:33:57.337Z,3.03
2023-11-15T15:36:59.486Z,3.27
2023-11-15T15:40:01.696Z,4.10
2023-11-15T15:43:05.021Z,4.35
2023-11-15T15:46:07.179Z,4.30
2023-11-15T15:49:09.649Z,4.75
2023-11-15T15:52:15.770Z,5.80
2023-11-15T15:55:18.148Z,7.72
2023-11-15T15:58:20.224Z,6.43
2023-11-15T16:01:26.896Z,5.82
2023-11-15T16:04:29.084Z,6.53
2023-11-15T16:07:31.884Z,6.75
2023-11-15T16:10:34.026Z,6.87
2023-11-15T16:13:36.094Z,7.18
2023-11-15T16:16:38.368Z,5.35
2023-11-15T16:19:42.884Z,4.47
2023-11-15T16:22:45.442Z,4.17
2023-11-15T16:25:47.607Z,5.03
2023-11-15T16:28:49.691Z,4.03
2023-11-15T16:31:51.983Z,4.28
2023-11-15T16:34:54.365Z,2.90
2023-11-15T16:37:56.513Z,3.03
2023-11-15T16:40:58.613Z,3.47
2023-11-15T16:44:00.677Z,3.87
2023-11-15T16:47:02.852Z,6.20
2023-11-15T16:50:05.527Z,8.35
2023-11-15T16:53:07.829Z,10.45
2023-11-15T16:56:11.509Z,9.43
2023-11-15T16:59:13.627Z,10.38
2023-11-15T17:02:15.965Z,9.38
2023-11-15T17:05:21.057Z,8.38
2023-11-15T17:08:26.210Z,6.80
2023-11-15T17:11:28.388Z,5.90
2023-11-15T17:14:31.167Z,6.00
2023-11-15T17:17:33.371Z,2.90
2023-11-15T17:20:40.695Z,3.50
2023-11-15T17:23:44.893Z,4.07
2023-11-15T17:26:47.399Z,5.07
2023-11-15T17:29:51.620Z,5.75
2023-11-15T17:32:53.849Z,3.47
2023-11-15T17:35:56.232Z,2.38
2023-11-15T17:38:59.853Z,3.40
2023-11-15T17:42:02.087Z,5.15
2023-11-15T17:45:04.634Z,5.43
2023-11-15T17:48:09.537Z,4.22
2023-11-15T17:51:11.725Z,6.65
2023-11-15T17:54:15.830Z,3.40
2023-11-15T17:57:18.169Z,4.05
2023-11-15T18:00:20.749Z,3.88
2023-11-15T18:03:23.155Z,4.40
2023-11-15T18:06:27.197Z,4.93
2023-11-15T18:09:29.409Z,5.30
2023-11-15T18:12:31.607Z,5.80
2023-11-15T18:15:34.271Z,5.95
2023-11-15T18:18:36.449Z,3.58
2023-11-15T18:21:38.988Z,6.28
2023-11-15T18:24:41.228Z,3.88
2023-11-15T18:27:46.898Z,4.83
2023-11-15T18:30:50.071Z,5.00
2023-11-15T18:33:52.536Z,6.13
2023-11-15T18:36:54.776Z,5.60
2023-11-15T18:39:56.916Z,6.23
2023-11-15T18:42:59.043Z,4.85
2023-11-15T18:46:01.239Z,5.22
2023-11-15T18:49:04.898Z,5.43
2023-11-15T18:52:07.148Z,5.60
2023-11-15T18:55:13.296Z,3.95
2023-11-15T18:58:15.617Z,5.90
2023-11-15T19:01:17.818Z,3.88
2023-11-15T19:04:20.126Z,3.35
2023-11-15T19:07:22.384Z,3.95
2023-11-15T19:10:28.684Z,4.47
2023-11-15T19:13:30.764Z,6.78
2023-11-15T19:16:32.922Z,5.35
2023-11-15T19:19:35.864Z,5.57
2023-11-15T19:22:38.415Z,4.37
2023-11-15T19:25:40.463Z,6.53
2023-11-15T19:28:42.718Z,4.65
2023-11-15T19:31:45.337Z,6.47
2023-11-15T19:34:48.984Z,7.43
2023-11-15T19:37:52.565Z,4.32
2023-11-15T19:40:54.834Z,5.68
2023-11-15T19:43:59.433Z,6.78
2023-11-15T19:47:01.785Z,6.68
2023-11-15T19:50:04.125Z,5.63
2023-11-15T19:53:08.510Z,8.07
2023-11-15T19:56:11.384Z,8.87
2023-11-15T19:59:13.434Z,4.10
2023-11-15T20:02:16.387Z,4.88
2023-11-15T20:05:18.641Z,5.23
2023-11-15T20:08:21.204Z,6.22
2023-11-15T20:11:23.960Z,4.72
2023-11-15T20:14:26.674Z,5.22
2023-11-15T20:17:31.701Z,4.90
2023-11-15T20:20:35.086Z,5.72
2023-11-15T20:23:37.954Z,8.05
2023-11-15T20:26:40.179Z,5.27
2023-11-15T20:29:43.313Z,5.80
2023-11-15T20:32:45.474Z,3.75
2023-11-15T20:35:47.713Z,5.40
2023-11-15T20:38:49.742Z,3.65
2023-11-15T20:41:51.840Z,5.50
2023-11-15T20:44:54.020Z,4.30
2023-11-15T20:47:56.309Z,4.70
2023-11-15T20:50:58.531Z,8.68
2023-11-15T20:54:01.315Z,4.32
2023-11-15T20:57:03.552Z,6.20
2023-11-15T21:00:17.879Z,7.05
2023-11-15T21:03:20.200Z,7.18
2023-11-15T21:06:22.731Z,6.63
2023-11-15T21:09:25.162Z,8.30
2023-11-15T21:12:27.332Z,6.82
2023-11-15T21:15:32.542Z,5.30
2023-11-15T21:18:34.738Z,8.97
2023-11-15T21:21:36.930Z,5.90
2023-11-15T21:24:39.239Z,4.22
2023-11-15T21:27:42.425Z,6.10
2023-11-15T21:30:44.590Z,4.00
2023-11-15T21:33:46.772Z,6.07
2023-11-15T21:36:48.940Z,4.25
2023-11-15T21:39:51.822Z,3.97
2023-11-15T21:42:53.904Z,5.25
2023-11-15T21:45:56.077Z,4.22
2023-11-15T21:48:58.603Z,2.83
2023-11-15T21:52:00.739Z,4.20
2023-11-15T21:55:04.629Z,5.05
2023-11-15T21:58:09.700Z,3.85
2023-11-15T22:01:14.167Z,4.40
2023-11-15T22:04:16.535Z,2.40
2023-11-15T22:07:19.014Z,4.13
2023-11-15T22:10:21.108Z,5.10
2023-11-15T22:13:23.228Z,3.05
2023-11-15T22:16:25.588Z,3.63
2023-11-15T22:19:28.107Z,3.47
2023-11-15T22:22:30.220Z,2.45
2023-11-15T22:25:32.394Z,2.15
2023-11-15T22:28:34.576Z,2.33
2023-11-15T22:31:37.300Z,2.33
2023-11-15T22:34:39.438Z,2.83
2023-11-15T22:37:41.685Z,3.05
2023-11-15T22:40:43.854Z,3.57
2023-11-15T22:43:45.933Z,3.45
2023-11-15T22:46:48.136Z,2.33
2023-11-15T22:49:51.113Z,2.53
2023-11-15T22:52:53.251Z,2.80
2023-11-15T22:55:55.338Z,2.40
2023-11-15T22:58:57.682Z,4.45
2023-11-15T23:02:00.129Z,5.73
2023-11-15T23:05:02.950Z,4.10
2023-11-15T23:08:05.760Z,2.95
2023-11-15T23:11:09.825Z,2.50
2023-11-15T23:14:11.868Z,3.80
2023-11-15T23:17:14.015Z,4.25
2023-11-15T23:20:16.097Z,2.75
2023-11-15T23:23:18.297Z,3.03
2023-11-15T23:26:20.436Z,3.03
2023-11-15T23:29:23.046Z,3.17
2023-11-15T23:32:27.184Z,2.97
2023-11-15T23:35:29.359Z,4.22
2023-11-15T23:38:31.454Z,6.35
2023-11-15T23:41:33.526Z,4.28
2023-11-15T23:44:36.545Z,3.20
2023-11-15T23:47:38.842Z,3.20
2023-11-15T23:50:40.926Z,2.38
2023-11-15T23:53:43.026Z,3.77
2023-11-15T23:56:45.632Z,5.53
2023-11-15T23:59:47.832Z,3.47
